createdAt,value
2018-08-13T00:00:08.397Z,17.80
2018-08-13T00:02:43.137Z,17.80
2018-08-13T00:05:19.058Z,17.90
2018-08-13T00:07:53.788Z,17.90
2018-08-13T00:10:28.536Z,17.90
2018-08-13T00:13:03.341Z,18.00
2018-08-13T00:15:38.201Z,18.10
2018-08-13T00:18:14.151Z,18.10
2018-08-13T00:20:49.005Z,18.10
2018-08-13T00:23:23.755Z,18.10
2018-08-13T00:25:59.553Z,18.10
2018-08-13T00:28:35.331Z,18.10
2018-08-13T00:31:10.092Z,18.10
2018-08-13T00:33:44.828Z,18.00
2018-08-13T00:36:19.682Z,18.00
2018-08-13T00:38:54.410Z,18.00
2018-08-13T00:41:30.263Z,17.90
2018-08-13T00:44:05.160Z,18.00
2018-08-13T00:46:39.964Z,18.00
2018-08-13T00:49:14.742Z,17.90
2018-08-13T00:51:49.523Z,17.90
2018-08-13T00:54:25.264Z,17.90
2018-08-13T00:57:01.075Z,17.90
2018-08-13T00:59:35.855Z,17.90
2018-08-13T01:02:11.226Z,17.90
2018-08-13T01:04:45.976Z,17.80
2018-08-13T01:07:20.792Z,17.80
2018-08-13T01:09:55.517Z,17.80
2018-08-13T01:12:30.297Z,17.80
2018-08-13T01:15:05.904Z,17.80
2018-08-13T01:17:42.086Z,17.80
2018-08-13T01:20:17.836Z,17.80
2018-08-13T01:22:53.853Z,17.80
2018-08-13T01:25:28.610Z,17.70
2018-08-13T01:28:03.323Z,17.70
2018-08-13T01:30:38.059Z,17.70
2018-08-13T01:33:12.897Z,17.70
2018-08-13T01:35:47.637Z,17.70
2018-08-13T01:38:23.402Z,17.70
2018-08-13T01:40:58.204Z,17.60
2018-08-13T01:43:32.934Z,17.60
2018-08-13T01:46:07.748Z,17.50
2018-08-13T01:48:42.499Z,17.50
2018-08-13T01:51:17.242Z,17.50
2018-08-13T01:53:51.977Z,17.50
2018-08-13T01:56:26.764Z,17.50
2018-08-13T01:59:02.576Z,17.50
2018-08-13T02:01:37.391Z,17.50
2018-08-13T02:04:13.161Z,17.50
2018-08-13T02:06:48.038Z,17.50
2018-08-13T02:09:22.823Z,17.50
2018-08-13T02:11:57.668Z,17.60
2018-08-13T02:14:33.825Z,17.60
2018-08-13T02:17:08.693Z,17.50
2018-08-13T02:19:43.829Z,17.60
2018-08-13T02:22:18.660Z,17.60
2018-08-13T02:24:54.449Z,17.50
2018-08-13T02:27:29.274Z,17.50
2018-08-13T02:30:05.599Z,17.40
2018-08-13T02:32:41.439Z,17.40
2018-08-13T02:35:16.213Z,17.40
2018-08-13T02:37:50.911Z,17.30
2018-08-13T02:40:25.684Z,17.30
2018-08-13T02:43:01.473Z,17.30
2018-08-13T02:45:36.310Z,17.30
2018-08-13T02:48:11.008Z,17.30
2018-08-13T02:50:51.807Z,17.20
2018-08-13T02:53:26.543Z,17.20
2018-08-13T02:56:01.579Z,17.20
2018-08-13T02:58:36.300Z,17.20
2018-08-13T03:01:11.075Z,17.20
2018-08-13T03:03:46.860Z,17.20
2018-08-13T03:06:22.791Z,17.20
2018-08-13T03:08:57.565Z,17.20
2018-08-13T03:11:32.332Z,17.20
2018-08-13T03:14:07.184Z,17.10
2018-08-13T03:16:42.932Z,17.20
2018-08-13T03:19:17.703Z,17.10
2018-08-13T03:21:52.789Z,17.10
2018-08-13T03:24:28.911Z,17.10
2018-08-13T03:27:03.626Z,17.10
2018-08-13T03:29:38.752Z,17.10
2018-08-13T03:32:13.490Z,17.10
2018-08-13T03:34:48.351Z,17.10
2018-08-13T03:37:23.023Z,17.00
2018-08-13T03:39:57.783Z,17.00
2018-08-13T03:42:32.522Z,17.00
2018-08-13T03:45:08.903Z,17.00
2018-08-13T03:47:43.977Z,17.00
2018-08-13T03:50:18.765Z,17.00
2018-08-13T03:52:53.497Z,17.00
2018-08-13T03:55:28.218Z,17.00
2018-08-13T03:58:02.958Z,17.00
2018-08-13T04:00:38.033Z,17.00
2018-08-13T04:03:12.848Z,17.00
2018-08-13T04:05:47.605Z,17.00
2018-08-13T04:08:23.413Z,17.10
2018-08-13T04:10:58.183Z,17.10
2018-08-13T04:13:33.943Z,17.10
2018-08-13T04:16:08.772Z,17.20
2018-08-13T04:18:43.506Z,17.10
2018-08-13T04:21:18.240Z,17.20
2018-08-13T04:23:52.995Z,17.20
2018-08-13T04:26:27.836Z,17.20
2018-08-13T04:29:02.622Z,17.20
2018-08-13T04:31:37.405Z,17.20
2018-08-13T04:34:13.223Z,17.20
2018-08-13T04:36:49.068Z,17.20
2018-08-13T04:39:23.813Z,17.30
2018-08-13T04:42:00.030Z,17.30
2018-08-13T04:44:35.087Z,17.40
2018-08-13T04:47:13.593Z,17.40
2018-08-13T04:49:49.455Z,17.50
2018-08-13T04:52:24.218Z,17.50
2018-08-13T04:54:59.403Z,17.60
2018-08-13T04:57:34.533Z,17.60
2018-08-13T05:00:09.836Z,17.70
2018-08-13T05:02:44.668Z,17.70
2018-08-13T05:05:19.447Z,17.80
2018-08-13T05:07:54.188Z,17.80
2018-08-13T05:10:29.165Z,17.90
2018-08-13T05:13:07.215Z,17.90
2018-08-13T05:15:41.948Z,18.00
2018-08-13T05:18:16.664Z,18.10
2018-08-13T05:20:51.407Z,18.10
2018-08-13T05:23:27.148Z,18.10
2018-08-13T05:26:01.973Z,18.20
2018-08-13T05:28:36.717Z,18.30
2018-08-13T05:31:11.799Z,18.30
2018-08-13T05:33:46.498Z,18.30
2018-08-13T05:36:21.281Z,18.40
2018-08-13T05:38:56.040Z,18.40
2018-08-13T05:41:30.752Z,18.60
2018-08-13T05:44:05.618Z,18.70
2018-08-13T05:46:40.390Z,18.70
2018-08-13T05:49:15.108Z,18.90
2018-08-13T05:51:50.264Z,19.10
2018-08-13T05:54:25.029Z,19.30
2018-08-13T05:56:59.833Z,19.40
2018-08-13T05:59:34.627Z,19.50
2018-08-13T06:02:09.432Z,19.40
2018-08-13T06:04:45.152Z,19.30
2018-08-13T06:07:19.925Z,19.20
2018-08-13T06:09:54.654Z,19.20
2018-08-13T06:12:30.495Z,19.20
2018-08-13T06:15:07.380Z,19.20
2018-08-13T06:17:43.216Z,19.40
2018-08-13T06:20:17.944Z,19.50
2018-08-13T06:22:53.743Z,19.60
2018-08-13T06:25:28.458Z,19.70
2018-08-13T06:28:04.541Z,19.50
2018-08-13T06:30:39.435Z,19.70
2018-08-13T06:33:14.552Z,19.70
2018-08-13T06:35:50.300Z,19.50
2018-08-13T06:38:25.436Z,19.70
2018-08-13T06:41:00.298Z,19.80
2018-08-13T06:43:35.084Z,19.70
2018-08-13T06:46:09.800Z,19.80
2018-08-13T06:48:44.556Z,19.80
2018-08-13T06:51:19.260Z,19.80
2018-08-13T06:53:55.086Z,19.80
2018-08-13T06:56:30.865Z,19.80
2018-08-13T06:59:05.664Z,19.80
2018-08-13T07:01:40.402Z,19.80
2018-08-13T07:04:15.172Z,19.80
2018-08-13T07:06:51.232Z,19.70
2018-08-13T07:09:26.026Z,19.70
2018-08-13T07:12:01.798Z,19.80
2018-08-13T07:14:36.580Z,19.90
2018-08-13T07:17:11.698Z,19.90
2018-08-13T07:19:47.486Z,20.00
2018-08-13T07:22:22.265Z,20.10
2018-08-13T07:24:57.216Z,20.20
2018-08-13T07:27:32.534Z,20.30
2018-08-13T07:30:09.880Z,20.50
2018-08-13T07:32:53.175Z,20.80
2018-08-13T07:35:30.504Z,21.40
2018-08-13T07:38:07.544Z,21.80
2018-08-13T07:40:46.121Z,21.50
2018-08-13T07:43:24.439Z,21.30
2018-08-13T07:46:03.113Z,21.50
2018-08-13T07:48:43.860Z,21.80
2018-08-13T07:51:21.921Z,21.60
2018-08-13T07:53:59.249Z,21.80
2018-08-13T07:56:36.758Z,21.60
2018-08-13T07:59:13.736Z,21.60
2018-08-13T08:01:50.194Z,21.60
2018-08-13T08:04:28.331Z,21.70
2018-08-13T08:07:04.646Z,21.80
2018-08-13T08:09:40.536Z,21.80
2018-08-13T08:12:16.237Z,21.80
2018-08-13T08:14:54.691Z,22.10
2018-08-13T08:17:30.919Z,22.50
2018-08-13T08:20:10.181Z,22.60
2018-08-13T08:22:46.306Z,22.70
2018-08-13T08:25:22.741Z,22.60
2018-08-13T08:27:58.476Z,22.60
2018-08-13T08:30:34.459Z,23.00
2018-08-13T08:33:11.063Z,23.00
2018-08-13T08:35:47.630Z,23.40
2018-08-13T08:38:26.162Z,23.30
2018-08-13T08:41:01.854Z,23.20
2018-08-13T08:43:37.857Z,23.30
2018-08-13T08:46:13.867Z,23.40
2018-08-13T08:48:48.609Z,23.10
2018-08-13T08:51:24.324Z,23.30
2018-08-13T08:54:04.502Z,23.80
2018-08-13T08:59:23.651Z,25.00
2018-08-13T09:01:58.798Z,25.10
2018-08-13T09:04:33.220Z,25.00
2018-08-13T09:07:07.995Z,24.80
2018-08-13T09:09:43.763Z,24.70
2018-08-13T09:12:18.531Z,24.70
2018-08-13T09:14:53.276Z,25.50
2018-08-13T09:17:38.745Z,25.60
2018-08-13T09:20:24.715Z,25.40
2018-08-13T09:23:10.409Z,25.40
2018-08-13T09:26:55.679Z,25.40
2018-08-13T09:29:41.087Z,26.20
2018-08-13T09:32:28.667Z,27.00
2018-08-13T09:35:12.868Z,27.20
2018-08-13T09:37:48.487Z,27.30
2018-08-13T09:40:23.165Z,27.00
2018-08-13T09:42:58.285Z,28.40
2018-08-13T09:45:32.824Z,29.40
2018-08-13T09:48:07.555Z,30.00
2018-08-13T09:50:42.487Z,30.70
2018-08-13T09:53:17.299Z,29.90
2018-08-13T09:55:52.056Z,29.90
2018-08-13T09:58:27.601Z,31.10
2018-08-13T10:01:10.053Z,30.70
2018-08-13T10:03:44.627Z,30.90
2018-08-13T10:06:19.219Z,30.10
2018-08-13T10:08:54.008Z,30.30
2018-08-13T10:11:28.522Z,29.60
2018-08-13T10:14:03.010Z,28.50
2018-08-13T10:16:37.437Z,28.70
2018-08-13T10:19:11.887Z,29.70
2018-08-13T10:21:46.351Z,30.50
2018-08-13T10:24:21.921Z,30.90
2018-08-13T10:26:56.408Z,31.70
2018-08-13T10:29:31.209Z,32.20
2018-08-13T10:32:06.004Z,31.90
2018-08-13T10:34:40.442Z,33.20
2018-08-13T10:37:14.860Z,32.40
2018-08-13T10:39:50.349Z,31.60
2018-08-13T10:42:24.757Z,31.80
2018-08-13T10:44:59.297Z,31.10
2018-08-13T10:47:34.179Z,31.70
2018-08-13T10:50:10.528Z,32.10
2018-08-13T10:52:44.975Z,32.20
2018-08-13T10:55:19.597Z,31.30
2018-08-13T10:57:54.027Z,31.60
2018-08-13T11:00:28.485Z,31.60
2018-08-13T11:03:02.970Z,29.90
2018-08-13T11:05:37.587Z,29.60
2018-08-13T11:08:12.405Z,29.90
2018-08-13T11:10:46.887Z,30.40
2018-08-13T11:13:21.367Z,30.60
2018-08-13T11:15:56.850Z,30.20
2018-08-13T11:18:32.324Z,30.00
2018-08-13T11:21:08.836Z,29.00
2018-08-13T11:23:43.303Z,28.70
2018-08-13T11:26:17.827Z,28.60
2018-08-13T11:28:52.300Z,28.70
2018-08-13T11:31:26.812Z,29.20
2018-08-13T11:34:01.319Z,29.20
2018-08-13T11:36:35.793Z,29.30
2018-08-13T11:39:11.700Z,29.10
2018-08-13T11:41:46.202Z,30.10
2018-08-13T11:44:20.665Z,30.20
2018-08-13T11:46:55.150Z,29.50
2018-08-13T11:49:29.578Z,29.50
2018-08-13T11:52:04.124Z,29.30
2018-08-13T11:54:38.580Z,29.50
2018-08-13T11:57:13.038Z,29.30
2018-08-13T11:59:47.557Z,29.30
2018-08-13T12:02:22.040Z,29.50
2018-08-13T12:04:56.820Z,28.70
2018-08-13T12:07:31.336Z,28.70
2018-08-13T12:10:07.156Z,28.70
2018-08-13T12:12:43.452Z,29.50
2018-08-13T12:15:17.866Z,29.20
2018-08-13T12:17:52.370Z,29.20
2018-08-13T12:20:26.820Z,29.00
2018-08-13T12:23:01.380Z,29.10
2018-08-13T12:25:36.176Z,29.30
2018-08-13T12:28:10.680Z,29.60
2018-08-13T12:30:45.501Z,29.50
2018-08-13T12:33:19.958Z,29.30
2018-08-13T12:35:54.406Z,29.10
2018-08-13T12:38:28.907Z,29.20
2018-08-13T12:41:03.421Z,29.30
2018-08-13T12:43:38.096Z,29.20
2018-08-13T12:46:12.536Z,29.40
2018-08-13T12:48:47.379Z,29.10
2018-08-13T12:51:21.824Z,29.60
2018-08-13T12:53:56.315Z,30.00
2018-08-13T12:56:31.120Z,29.70
2018-08-13T12:59:05.670Z,29.50
2018-08-13T13:01:41.090Z,29.40
2018-08-13T13:04:15.556Z,29.30
2018-08-13T13:06:49.978Z,29.40
2018-08-13T13:09:24.543Z,28.90
2018-08-13T13:11:58.989Z,28.80
2018-08-13T13:14:33.479Z,28.70
2018-08-13T13:17:08.934Z,28.70
2018-08-13T13:19:43.565Z,28.70
2018-08-13T13:22:19.104Z,28.80
2018-08-13T13:24:53.624Z,28.70
2018-08-13T13:27:29.068Z,29.00
2018-08-13T13:30:04.671Z,29.10
2018-08-13T13:32:39.121Z,29.20
2018-08-13T13:35:15.251Z,29.50
2018-08-13T13:37:49.691Z,29.30
2018-08-13T13:40:24.534Z,29.50
2018-08-13T13:42:59.062Z,29.60
2018-08-13T13:45:34.715Z,29.40
2018-08-13T13:48:09.150Z,29.70
2018-08-13T13:50:43.627Z,29.70
2018-08-13T13:53:18.064Z,29.40
2018-08-13T13:55:55.421Z,29.20
2018-08-13T13:58:31.731Z,29.40
2018-08-13T14:01:16.047Z,29.40
2018-08-13T14:03:51.624Z,29.30
2018-08-13T14:06:27.171Z,29.10
2018-08-13T14:09:02.163Z,29.10
2018-08-13T14:11:36.811Z,28.90
2018-08-13T14:14:11.925Z,28.80
2018-08-13T14:16:46.404Z,28.90
2018-08-13T14:19:21.080Z,28.90
2018-08-13T14:21:55.506Z,29.00
2018-08-13T14:24:29.968Z,28.90
2018-08-13T14:27:05.074Z,29.00
2018-08-13T14:29:39.828Z,29.00
2018-08-13T14:32:15.352Z,28.80
2018-08-13T14:34:49.981Z,28.80
2018-08-13T14:37:24.452Z,28.70
2018-08-13T14:39:59.030Z,28.50
2018-08-13T14:42:33.603Z,28.50
2018-08-13T14:45:10.086Z,28.40
2018-08-13T14:47:46.897Z,28.40
2018-08-13T14:50:22.412Z,28.40
2018-08-13T14:52:57.648Z,28.30
2018-08-13T14:55:33.152Z,28.30
2018-08-13T14:58:07.676Z,28.40
2018-08-13T15:00:42.384Z,28.30
2018-08-13T15:03:16.852Z,28.20
2018-08-13T15:05:51.343Z,28.10
2018-08-13T15:08:25.799Z,28.10
2018-08-13T15:11:00.319Z,28.20
2018-08-13T15:13:34.747Z,28.00
2018-08-13T15:16:09.259Z,27.90
2018-08-13T15:18:43.656Z,27.80
2018-08-13T15:21:18.434Z,27.80
2018-08-13T15:23:53.163Z,27.70
2018-08-13T15:26:27.944Z,26.90
2018-08-13T15:29:02.863Z,26.70
2018-08-13T15:31:37.608Z,26.50
2018-08-13T15:34:12.355Z,26.30
2018-08-13T15:36:47.148Z,26.20
2018-08-13T15:39:22.211Z,25.90
2018-08-13T15:41:57.048Z,25.60
2018-08-13T15:44:31.991Z,25.40
2018-08-13T15:47:06.774Z,25.30
2018-08-13T15:49:42.575Z,25.10
2018-08-13T15:52:17.336Z,25.00
2018-08-13T15:54:52.303Z,24.80
2018-08-13T15:57:27.145Z,24.60
2018-08-13T16:00:01.947Z,24.40
2018-08-13T16:02:36.679Z,24.30
2018-08-13T16:05:12.179Z,24.10
2018-08-13T16:07:47.662Z,23.90
2018-08-13T16:10:22.467Z,23.90
2018-08-13T16:12:57.202Z,23.70
2018-08-13T16:15:31.977Z,23.60
2018-08-13T16:18:07.696Z,23.60
2018-08-13T16:20:43.572Z,23.50
2018-08-13T16:23:19.283Z,23.40
2018-08-13T16:25:54.760Z,23.30
2018-08-13T16:28:29.880Z,23.20
2018-08-13T16:31:04.638Z,23.10
2018-08-13T16:33:39.365Z,23.00
2018-08-13T16:36:14.147Z,22.80
2018-08-13T16:38:48.886Z,22.70
2018-08-13T16:41:23.660Z,22.60
2018-08-13T16:43:59.408Z,22.50
2018-08-13T16:46:35.492Z,22.40
2018-08-13T16:49:10.238Z,22.40
2018-08-13T16:51:45.026Z,22.30
2018-08-13T16:54:19.832Z,22.30
2018-08-13T16:56:55.660Z,22.30
2018-08-13T16:59:31.409Z,22.30
2018-08-13T17:02:06.340Z,22.20
2018-08-13T17:04:41.107Z,22.20
2018-08-13T17:07:15.894Z,22.20
2018-08-13T17:09:50.988Z,22.10
2018-08-13T17:12:25.725Z,21.80
2018-08-13T17:15:00.453Z,21.60
2018-08-13T17:17:35.275Z,21.50
2018-08-13T17:20:12.364Z,21.50
2018-08-13T17:22:47.204Z,21.50
2018-08-13T17:25:23.363Z,21.50
2018-08-13T17:27:58.319Z,21.50
2018-08-13T17:30:34.405Z,21.50
2018-08-13T17:33:09.624Z,21.40
2018-08-13T17:35:44.414Z,21.30
2018-08-13T17:38:19.500Z,21.20
2018-08-13T17:40:54.279Z,21.20
2018-08-13T17:43:30.029Z,21.00
2018-08-13T17:46:04.865Z,20.80
2018-08-13T17:48:39.728Z,20.60
2018-08-13T17:51:15.589Z,20.60
2018-08-13T17:53:50.385Z,20.50
2018-08-13T17:56:25.192Z,20.50
2018-08-13T17:59:00.108Z,20.40
2018-08-13T18:01:34.869Z,20.40
2018-08-13T18:04:09.972Z,20.40
2018-08-13T18:06:45.737Z,20.40
2018-08-13T18:09:20.555Z,20.30
2018-08-13T18:11:56.376Z,20.30
2018-08-13T18:14:31.147Z,20.30
2018-08-13T18:17:05.913Z,20.30
2018-08-13T18:19:40.801Z,20.20
2018-08-13T18:22:15.611Z,20.20
2018-08-13T18:24:51.400Z,20.10
2018-08-13T18:27:26.181Z,20.10
2018-08-13T18:30:01.052Z,20.00
2018-08-13T18:32:35.793Z,20.00
2018-08-13T18:35:10.776Z,19.90
2018-08-13T18:37:45.550Z,19.90
2018-08-13T18:40:23.688Z,19.80
2018-08-13T18:42:58.435Z,19.70
2018-08-13T18:45:33.313Z,19.70
2018-08-13T18:48:08.031Z,19.70
2018-08-13T18:50:42.754Z,19.70
2018-08-13T18:53:17.523Z,19.60
2018-08-13T18:55:52.281Z,19.60
2018-08-13T18:58:27.001Z,19.60
2018-08-13T19:01:01.763Z,19.60
2018-08-13T19:03:36.539Z,19.50
2018-08-13T19:06:11.323Z,19.50
2018-08-13T19:08:46.095Z,19.30
2018-08-13T19:11:21.305Z,19.30
2018-08-13T19:13:56.060Z,19.20
2018-08-13T19:16:30.819Z,19.20
2018-08-13T19:19:05.614Z,19.20
2018-08-13T19:21:40.466Z,19.10
2018-08-13T19:24:15.489Z,19.00
2018-08-13T19:26:51.227Z,19.00
2018-08-13T19:29:25.951Z,19.00
2018-08-13T19:32:00.743Z,18.90
2018-08-13T19:34:35.432Z,19.00
2018-08-13T19:37:10.199Z,18.90
2018-08-13T19:39:46.021Z,18.90
2018-08-13T19:42:20.749Z,18.90
2018-08-13T19:44:55.821Z,18.80
2018-08-13T19:47:30.577Z,18.80
2018-08-13T19:50:06.517Z,18.70
2018-08-13T19:52:43.664Z,18.70
2018-08-13T19:55:19.802Z,18.70
2018-08-13T19:57:55.611Z,18.60
2018-08-13T20:00:30.567Z,18.60
2018-08-13T20:03:06.077Z,18.50
2018-08-13T20:05:40.874Z,18.50
2018-08-13T20:08:16.721Z,18.50
2018-08-13T20:10:51.536Z,18.50
2018-08-13T20:13:26.306Z,18.40
2018-08-13T20:16:02.287Z,18.40
2018-08-13T20:18:37.077Z,18.40
2018-08-13T20:21:11.763Z,18.20
2018-08-13T20:23:46.564Z,18.20
2018-08-13T20:26:21.482Z,18.20
2018-08-13T20:28:56.207Z,18.20
2018-08-13T20:31:31.984Z,18.30
2018-08-13T20:34:07.470Z,18.30
2018-08-13T20:36:43.192Z,18.30
2018-08-13T20:39:19.007Z,18.30
2018-08-13T20:41:53.783Z,18.40
2018-08-13T20:44:28.556Z,18.40
2018-08-13T20:47:03.356Z,18.40
2018-08-13T20:49:39.156Z,18.50
2018-08-13T20:52:13.876Z,18.50
2018-08-13T20:54:48.649Z,18.50
2018-08-13T20:57:23.377Z,18.60
2018-08-13T20:59:58.200Z,18.60
2018-08-13T21:02:32.939Z,18.70
2018-08-13T21:05:07.987Z,18.70
2018-08-13T21:07:42.927Z,18.80
2018-08-13T21:10:18.950Z,18.80
2018-08-13T21:12:54.814Z,18.80
2018-08-13T21:15:29.648Z,18.80
2018-08-13T21:18:04.520Z,18.80
2018-08-13T21:20:40.336Z,18.80
2018-08-13T21:23:15.072Z,18.90
2018-08-13T21:25:49.850Z,18.80
2018-08-13T21:28:24.573Z,18.80
2018-08-13T21:30:59.425Z,18.80
2018-08-13T21:33:34.432Z,18.70
2018-08-13T21:36:09.220Z,18.60
2018-08-13T21:38:43.972Z,18.60
2018-08-13T21:41:19.748Z,18.60
2018-08-13T21:43:54.876Z,18.60
2018-08-13T21:46:29.647Z,18.60
2018-08-13T21:49:04.488Z,18.60
2018-08-13T21:51:39.332Z,18.60
2018-08-13T21:54:14.140Z,18.70
2018-08-13T21:56:48.915Z,18.70
2018-08-13T21:59:23.599Z,18.70
2018-08-13T22:01:59.467Z,18.60
2018-08-13T22:04:34.684Z,18.70
2018-08-13T22:07:09.518Z,18.70
2018-08-13T22:09:44.254Z,18.70
2018-08-13T22:12:20.105Z,18.70
2018-08-13T22:14:54.867Z,18.70
2018-08-13T22:17:29.606Z,18.70
2018-08-13T22:20:04.765Z,18.70
2018-08-13T22:22:39.538Z,18.60
2018-08-13T22:25:16.719Z,18.60
2018-08-13T22:27:51.533Z,18.60
2018-08-13T22:30:26.283Z,18.60
2018-08-13T22:33:02.118Z,18.50
2018-08-13T22:35:36.931Z,18.50
2018-08-13T22:38:11.763Z,18.40
2018-08-13T22:40:46.597Z,18.30
2018-08-13T22:43:21.396Z,18.20
2018-08-13T22:45:56.121Z,18.20
2018-08-13T22:48:30.909Z,18.10
2018-08-13T22:51:06.029Z,18.00
2018-08-13T22:53:40.840Z,17.90
2018-08-13T22:56:15.641Z,17.90
2018-08-13T22:58:51.434Z,17.90
2018-08-13T23:01:27.174Z,17.80
2018-08-13T23:04:02.013Z,17.80
2018-08-13T23:06:36.790Z,17.80
2018-08-13T23:09:13.501Z,17.80
2018-08-13T23:11:48.215Z,17.80
2018-08-13T23:14:23.033Z,17.80
2018-08-13T23:16:57.789Z,17.80
2018-08-13T23:19:33.582Z,17.80
2018-08-13T23:22:08.669Z,17.80
2018-08-13T23:24:43.405Z,17.80
2018-08-13T23:27:18.140Z,17.80
2018-08-13T23:29:52.941Z,17.80
2018-08-13T23:32:27.639Z,17.70
2018-08-13T23:35:02.392Z,17.70
2018-08-13T23:37:37.170Z,17.70
2018-08-13T23:40:13.004Z,17.60
2018-08-13T23:42:47.848Z,17.60
2018-08-13T23:45:26.462Z,17.50
2018-08-13T23:48:02.302Z,17.50
2018-08-13T23:50:37.042Z,17.50
2018-08-13T23:53:12.836Z,17.40
2018-08-13T23:55:47.603Z,17.40
2018-08-13T23:58:22.369Z,17.40
